Terminal Aerodrome Forecast
Issued by NWS

Home | Current Version | Previous Version | Text Only | Print | Product List | Glossary On
Versions: 1 2 3 4 5 6 7 8 9 10 11 12
000
FTPA31 PHFO 222337
TAFSTU
TAF
NSTU 222337Z 2300/2324 VRB05KT P6SM VCSH SCT018 BKN040 BKN100
     FM231100 18009KT P6SM SCT018 BKN040 BKN100
      TEMPO 2311/2315 5SM -SHRA SCT015 BKN035
     FM231500 15009KT P6SM SCT020 SCT040 SCT100=

USA.gov is the U.S. government's official web portal to all federal, state and local government web resources and services.